createdAt,value
2022-12-20T00:00:10.581Z,81.07
2022-12-20T00:02:39.841Z,80.54
2022-12-20T00:05:09.465Z,80.71
2022-12-20T00:07:38.200Z,81.25
2022-12-20T00:10:07.689Z,81.82
2022-12-20T00:12:36.405Z,81.38
2022-12-20T00:15:05.716Z,82.67
2022-12-20T00:17:34.528Z,82.89
2022-12-20T00:20:03.278Z,82.63
2022-12-20T00:22:32.100Z,82.83
2022-12-20T00:25:00.716Z,83.62
2022-12-20T00:27:29.813Z,83.36
2022-12-20T00:29:59.252Z,83.39
2022-12-20T00:32:29.216Z,83.41
2022-12-20T00:34:59.452Z,83.60
2022-12-20T00:37:28.266Z,83.84
2022-12-20T00:39:57.111Z,83.69
2022-12-20T00:42:25.935Z,83.81
2022-12-20T00:44:54.587Z,84.18
2022-12-20T00:47:23.600Z,84.90
2022-12-20T00:49:52.359Z,84.24
2022-12-20T00:52:21.307Z,84.88
2022-12-20T00:54:50.167Z,84.14
2022-12-20T00:57:19.005Z,84.75
2022-12-20T00:59:47.859Z,84.56
2022-12-20T01:02:16.769Z,84.54
2022-12-20T01:04:46.080Z,84.80
2022-12-20T01:07:15.371Z,84.51
2022-12-20T01:09:44.368Z,84.59
2022-12-20T01:12:13.479Z,84.41
2022-12-20T01:14:42.302Z,84.65
2022-12-20T01:17:11.977Z,84.82
2022-12-20T01:19:41.560Z,84.46
2022-12-20T01:22:10.506Z,84.67
2022-12-20T01:24:39.283Z,84.68
2022-12-20T01:27:08.125Z,84.25
2022-12-20T01:29:36.962Z,84.32
2022-12-20T01:32:06.116Z,83.69
2022-12-20T01:34:35.292Z,84.07
2022-12-20T01:37:04.252Z,84.72
2022-12-20T01:39:33.967Z,84.78
2022-12-20T01:42:02.724Z,84.77
2022-12-20T01:44:32.954Z,85.19
2022-12-20T01:47:01.811Z,84.84
2022-12-20T01:49:40.393Z,85.79
2022-12-20T01:52:27.903Z,85.36
2022-12-20T01:55:15.677Z,86.26
2022-12-20T01:58:10.185Z,85.76
2022-12-20T02:00:39.430Z,86.11
2022-12-20T02:03:11.152Z,86.04
2022-12-20T02:05:48.524Z,85.87
2022-12-20T02:08:20.636Z,85.84
2022-12-20T02:11:07.980Z,85.45
2022-12-20T02:13:46.458Z,85.40
2022-12-20T02:16:23.115Z,85.14
2022-12-20T02:19:07.813Z,85.07
2022-12-20T02:22:41.981Z,84.71
2022-12-20T02:25:31.501Z,84.10
2022-12-20T02:28:42.037Z,84.57
2022-12-20T02:31:18.198Z,84.02
2022-12-20T02:33:49.766Z,83.68
2022-12-20T02:36:19.503Z,83.68
2022-12-20T02:38:52.331Z,83.80
2022-12-20T02:41:25.267Z,83.26
2022-12-20T02:44:23.892Z,83.53
2022-12-20T02:46:54.763Z,83.54
2022-12-20T02:49:30.229Z,83.50
2022-12-20T02:52:01.297Z,83.41
2022-12-20T02:54:30.914Z,83.98
2022-12-20T02:57:12.390Z,83.85
2022-12-20T02:59:52.004Z,84.02
2022-12-20T03:02:21.496Z,83.48
2022-12-20T03:04:51.719Z,84.32
2022-12-20T03:07:22.878Z,83.76
2022-12-20T03:09:51.599Z,83.58
2022-12-20T03:12:20.302Z,82.75
2022-12-20T03:14:51.459Z,82.77
2022-12-20T03:17:21.021Z,81.35
2022-12-20T03:19:49.708Z,80.35
2022-12-20T03:22:18.419Z,80.21
2022-12-20T03:24:47.898Z,80.20
2022-12-20T03:27:17.493Z,80.20
2022-12-20T03:29:46.649Z,79.46
2022-12-20T03:32:15.272Z,79.45
2022-12-20T03:34:45.701Z,79.17
2022-12-20T03:37:16.108Z,79.26
2022-12-20T03:39:44.673Z,79.08
2022-12-20T03:42:13.566Z,78.77
2022-12-20T03:44:42.430Z,78.33
2022-12-20T03:47:12.065Z,78.11
2022-12-20T03:49:40.585Z,77.66
2022-12-20T03:52:10.512Z,77.17
2022-12-20T03:54:39.624Z,77.31
2022-12-20T03:57:12.955Z,77.67
2022-12-20T03:59:41.929Z,77.38
2022-12-20T04:02:15.295Z,76.87
2022-12-20T04:04:44.768Z,76.84
2022-12-20T04:07:13.993Z,76.26
2022-12-20T04:09:46.480Z,76.42
2022-12-20T04:12:17.436Z,76.95
2022-12-20T04:14:46.403Z,76.88
2022-12-20T04:17:15.907Z,76.43
2022-12-20T04:19:45.052Z,76.06
2022-12-20T04:22:14.643Z,76.53
2022-12-20T04:25:05.888Z,76.15
2022-12-20T04:27:39.214Z,76.35
2022-12-20T04:30:10.479Z,76.81
2022-12-20T04:32:39.285Z,76.24
2022-12-20T04:35:08.810Z,76.72
2022-12-20T04:37:41.783Z,76.42
2022-12-20T04:40:11.526Z,76.26
2022-12-20T04:43:00.489Z,76.42
2022-12-20T04:45:29.164Z,76.03
2022-12-20T04:48:02.497Z,76.34
2022-12-20T04:50:40.147Z,76.22
2022-12-20T04:53:31.199Z,76.29
2022-12-20T04:55:59.910Z,76.09
2022-12-20T04:58:28.921Z,76.56
2022-12-20T05:01:00.402Z,76.38
2022-12-20T05:03:36.179Z,76.59
2022-12-20T05:06:05.873Z,76.61
2022-12-20T05:08:35.756Z,77.01
2022-12-20T05:11:05.363Z,77.04
2022-12-20T05:13:35.098Z,76.12
2022-12-20T05:16:04.684Z,76.55
2022-12-20T05:18:36.027Z,76.45
2022-12-20T05:21:26.398Z,77.59
2022-12-20T05:24:13.782Z,77.14
2022-12-20T05:26:57.141Z,77.66
2022-12-20T05:29:26.081Z,78.22
2022-12-20T05:31:55.752Z,78.49
2022-12-20T05:34:25.057Z,78.87
2022-12-20T05:36:55.783Z,79.11
2022-12-20T05:39:28.640Z,79.66
2022-12-20T05:42:01.176Z,79.34
2022-12-20T05:44:29.883Z,79.50
2022-12-20T05:46:59.528Z,79.78
2022-12-20T05:49:31.409Z,80.44
2022-12-20T05:52:03.771Z,80.46
2022-12-20T05:54:32.636Z,80.66
2022-12-20T05:57:08.100Z,80.82
2022-12-20T05:59:39.659Z,80.63
2022-12-20T06:02:14.739Z,81.12
2022-12-20T06:04:44.786Z,81.16
2022-12-20T06:07:25.050Z,81.95
2022-12-20T06:09:58.336Z,81.58
2022-12-20T06:12:40.741Z,81.61
2022-12-20T06:15:10.224Z,81.25
2022-12-20T06:17:40.202Z,81.28
2022-12-20T06:20:09.487Z,82.17
2022-12-20T06:22:38.301Z,82.31
2022-12-20T06:25:09.974Z,82.27
2022-12-20T06:27:40.844Z,82.48
2022-12-20T06:30:14.911Z,82.34
2022-12-20T06:33:02.874Z,82.69
2022-12-20T06:35:31.957Z,82.21
2022-12-20T06:38:01.227Z,82.42
2022-12-20T06:40:36.507Z,82.67
2022-12-20T06:43:05.305Z,82.99
2022-12-20T06:45:41.014Z,83.01
2022-12-20T06:48:12.151Z,83.00
2022-12-20T06:50:42.442Z,82.54
2022-12-20T06:53:11.483Z,83.53
2022-12-20T06:55:41.398Z,83.01
2022-12-20T06:58:12.835Z,83.29
2022-12-20T07:00:41.911Z,83.26
2022-12-20T07:03:10.603Z,83.52
2022-12-20T07:05:39.711Z,83.39
2022-12-20T07:08:09.568Z,83.11
2022-12-20T07:10:39.147Z,83.65
2022-12-20T07:13:07.891Z,83.60
2022-12-20T07:15:36.793Z,83.99
2022-12-20T07:18:05.576Z,83.66
2022-12-20T07:20:34.353Z,84.19
2022-12-20T07:23:03.300Z,83.99
2022-12-20T07:25:32.031Z,84.12
2022-12-20T07:28:01.115Z,84.41
2022-12-20T07:30:30.234Z,83.86
2022-12-20T07:32:59.544Z,84.45
2022-12-20T07:35:31.073Z,84.58
2022-12-20T07:37:59.919Z,84.79
2022-12-20T07:40:28.752Z,85.21
2022-12-20T07:43:00.141Z,85.29
2022-12-20T07:45:28.920Z,84.88
2022-12-20T07:48:03.318Z,85.03
2022-12-20T07:50:36.699Z,84.98
2022-12-20T07:53:07.170Z,84.68
2022-12-20T07:55:37.386Z,84.86
2022-12-20T07:58:09.051Z,84.87
2022-12-20T08:00:38.900Z,85.33
2022-12-20T08:03:13.903Z,85.13
2022-12-20T08:05:47.296Z,84.70
2022-12-20T08:08:16.856Z,85.15
2022-12-20T08:10:47.131Z,85.45
2022-12-20T08:13:19.352Z,85.14
2022-12-20T08:15:48.250Z,85.13
2022-12-20T08:18:16.968Z,85.38
2022-12-20T08:20:45.751Z,85.41
2022-12-20T08:23:14.590Z,85.45
2022-12-20T08:25:43.216Z,85.56
2022-12-20T08:28:12.470Z,85.81
2022-12-20T08:30:41.257Z,85.34
2022-12-20T08:33:10.002Z,85.93
2022-12-20T08:35:38.932Z,85.75
2022-12-20T08:38:08.752Z,85.35
2022-12-20T08:40:40.383Z,85.58
2022-12-20T08:43:10.492Z,85.63
2022-12-20T08:45:39.319Z,85.44
2022-12-20T08:48:10.678Z,85.68
2022-12-20T08:50:39.418Z,85.72
2022-12-20T08:53:08.325Z,85.17
2022-12-20T08:55:39.573Z,85.13
2022-12-20T08:58:08.656Z,85.77
2022-12-20T09:00:38.342Z,85.39
2022-12-20T09:03:10.849Z,85.20
2022-12-20T09:05:46.133Z,85.94
2022-12-20T09:08:17.212Z,85.93
2022-12-20T09:10:46.177Z,85.73
2022-12-20T09:13:14.990Z,85.80
2022-12-20T09:15:45.917Z,86.10
2022-12-20T09:18:14.784Z,85.70
2022-12-20T09:20:46.151Z,86.11
2022-12-20T09:23:14.809Z,86.24
2022-12-20T09:25:45.572Z,86.09
2022-12-20T09:28:17.723Z,86.41
2022-12-20T09:30:46.581Z,85.91
2022-12-20T09:33:15.482Z,86.36
2022-12-20T09:35:48.032Z,86.08
2022-12-20T09:38:16.726Z,86.83
2022-12-20T09:40:52.644Z,86.86
2022-12-20T09:43:22.824Z,86.67
2022-12-20T09:45:56.940Z,86.65
2022-12-20T09:48:40.087Z,86.66
2022-12-20T09:51:12.091Z,87.00
2022-12-20T09:53:53.438Z,86.80
2022-12-20T09:56:31.272Z,87.04
2022-12-20T09:59:01.733Z,87.33
2022-12-20T10:01:39.527Z,87.20
2022-12-20T10:04:34.645Z,87.19
2022-12-20T10:07:30.617Z,87.28
2022-12-20T10:10:37.315Z,87.11
2022-12-20T10:13:12.019Z,88.04
2022-12-20T10:16:19.580Z,87.29
2022-12-20T10:19:16.657Z,87.60
2022-12-20T10:21:45.297Z,87.70
2022-12-20T10:24:22.359Z,87.47
2022-12-20T10:26:51.563Z,87.93
2022-12-20T10:29:21.873Z,87.26
2022-12-20T10:31:55.655Z,87.18
2022-12-20T10:34:24.658Z,87.46
2022-12-20T10:37:16.715Z,88.09
2022-12-20T10:39:49.901Z,87.77
2022-12-20T10:42:39.298Z,87.56
2022-12-20T10:45:44.456Z,87.69
2022-12-20T10:48:41.474Z,87.90
2022-12-20T10:51:16.757Z,87.83
2022-12-20T10:53:56.811Z,87.61
2022-12-20T10:56:31.873Z,87.89
2022-12-20T10:59:04.275Z,87.80
2022-12-20T11:01:36.874Z,87.86
2022-12-20T11:04:21.918Z,88.30
2022-12-20T11:06:50.531Z,87.83
2022-12-20T11:09:29.858Z,88.29
2022-12-20T11:12:07.682Z,88.17
2022-12-20T11:14:39.875Z,87.78
2022-12-20T11:17:30.152Z,88.03
2022-12-20T11:20:06.487Z,87.57
2022-12-20T11:22:44.204Z,88.31
2022-12-20T11:25:16.486Z,88.08
2022-12-20T11:28:23.699Z,87.87
2022-12-20T11:31:22.094Z,88.03
2022-12-20T11:34:12.184Z,87.64
2022-12-20T11:36:53.506Z,87.42
2022-12-20T11:39:40.513Z,87.97
2022-12-20T11:42:48.328Z,87.61
2022-12-20T11:45:32.155Z,87.68
2022-12-20T11:48:25.340Z,87.61
2022-12-20T11:51:26.762Z,88.15
2022-12-20T11:54:02.393Z,88.21
2022-12-20T11:56:45.870Z,87.89
2022-12-20T11:59:43.487Z,87.89
2022-12-20T12:02:16.195Z,88.33
2022-12-20T12:05:04.412Z,88.14
2022-12-20T12:07:36.654Z,87.99
2022-12-20T12:10:17.682Z,88.15
2022-12-20T12:13:05.102Z,88.49
2022-12-20T12:16:06.178Z,88.18
2022-12-20T12:18:36.953Z,88.32
2022-12-20T12:21:25.975Z,88.13
2022-12-20T12:24:26.090Z,88.21
2022-12-20T12:26:55.436Z,87.96
2022-12-20T12:29:25.153Z,88.43
2022-12-20T12:32:06.277Z,88.79
2022-12-20T12:35:14.891Z,88.63
2022-12-20T12:37:56.110Z,88.62
2022-12-20T12:40:35.806Z,88.74
2022-12-20T12:43:41.732Z,88.58
2022-12-20T12:46:24.000Z,88.77
2022-12-20T12:49:05.369Z,88.63
2022-12-20T12:51:42.820Z,88.92
2022-12-20T12:54:26.419Z,89.59
2022-12-20T12:57:14.671Z,88.67
2022-12-20T12:59:48.963Z,88.59
2022-12-20T13:02:21.660Z,88.88
2022-12-20T13:04:59.429Z,88.73
2022-12-20T13:07:33.729Z,88.93
2022-12-20T13:10:26.259Z,89.57
2022-12-20T13:13:14.741Z,89.06
2022-12-20T13:15:51.148Z,89.11
2022-12-20T13:18:26.239Z,88.98
2022-12-20T13:21:31.962Z,89.39
2022-12-20T13:24:49.969Z,89.45
2022-12-20T13:27:31.478Z,89.06
2022-12-20T13:30:05.758Z,89.36
2022-12-20T13:32:49.483Z,88.66
2022-12-20T13:35:27.055Z,89.62
2022-12-20T13:38:25.755Z,89.26
2022-12-20T13:41:00.702Z,89.18
2022-12-20T13:43:43.167Z,89.36
2022-12-20T13:46:11.964Z,89.01
2022-12-20T13:48:54.246Z,89.28
2022-12-20T13:51:29.545Z,89.54
2022-12-20T13:54:02.928Z,89.72
2022-12-20T13:56:51.761Z,89.66
2022-12-20T13:59:28.742Z,89.61
2022-12-20T14:02:03.941Z,89.60
2022-12-20T14:04:44.410Z,89.61
2022-12-20T14:07:17.979Z,89.32
2022-12-20T14:09:55.960Z,89.51
2022-12-20T14:12:31.370Z,89.73
2022-12-20T14:15:25.230Z,89.46
2022-12-20T14:17:54.545Z,89.17
2022-12-20T14:20:31.905Z,89.56
2022-12-20T14:23:13.732Z,89.65
2022-12-20T14:25:53.639Z,89.88
2022-12-20T14:28:45.608Z,89.75
2022-12-20T14:31:29.535Z,89.59
2022-12-20T14:34:13.017Z,89.67
2022-12-20T14:36:47.464Z,90.22
2022-12-20T14:39:37.116Z,89.71
2022-12-20T14:42:10.697Z,89.40
2022-12-20T14:44:40.534Z,89.45
2022-12-20T14:47:28.854Z,89.53
2022-12-20T14:50:03.415Z,89.77
2022-12-20T14:52:43.219Z,89.63
2022-12-20T14:55:23.181Z,89.49
2022-12-20T14:57:54.827Z,90.04
2022-12-20T15:00:30.870Z,89.67
2022-12-20T15:03:13.645Z,89.34
2022-12-20T15:06:01.494Z,90.04
2022-12-20T15:08:34.846Z,89.71
2022-12-20T15:11:23.315Z,89.73
2022-12-20T15:13:55.448Z,89.75
2022-12-20T15:16:30.439Z,89.69
2022-12-20T15:19:04.740Z,89.79
2022-12-20T15:21:40.941Z,89.87
2022-12-20T15:24:20.495Z,90.33
2022-12-20T15:26:50.658Z,90.00
2022-12-20T15:29:25.375Z,90.15
2022-12-20T15:32:14.619Z,90.12
2022-12-20T15:34:43.572Z,90.01
2022-12-20T15:37:18.683Z,90.09
2022-12-20T15:39:48.189Z,89.93
2022-12-20T15:42:19.548Z,90.13
2022-12-20T15:44:48.911Z,90.21
2022-12-20T15:47:18.588Z,90.10
2022-12-20T15:49:50.514Z,90.52
2022-12-20T15:52:24.888Z,90.26
2022-12-20T15:54:56.673Z,90.61
2022-12-20T15:57:26.027Z,90.62
2022-12-20T16:00:00.470Z,90.74
2022-12-20T16:02:40.269Z,90.11
2022-12-20T16:05:14.649Z,90.62
2022-12-20T16:07:43.917Z,90.06
2022-12-20T16:10:15.769Z,90.64
2022-12-20T16:12:45.275Z,89.87
2022-12-20T16:15:23.226Z,90.21
2022-12-20T16:17:52.893Z,90.24
2022-12-20T16:20:21.783Z,89.81
2022-12-20T16:22:53.209Z,89.34
2022-12-20T16:25:28.286Z,89.20
2022-12-20T16:27:58.547Z,89.05
2022-12-20T16:30:28.507Z,88.14
2022-12-20T16:32:59.976Z,87.73
2022-12-20T16:35:35.439Z,87.18
2022-12-20T16:38:06.242Z,87.89
2022-12-20T16:40:35.297Z,87.73
2022-12-20T16:43:05.285Z,87.27
2022-12-20T16:45:35.946Z,87.53
2022-12-20T16:48:08.652Z,87.22
2022-12-20T16:50:42.427Z,86.73
2022-12-20T16:53:16.243Z,87.03
2022-12-20T16:55:45.356Z,86.89
2022-12-20T16:58:14.147Z,86.88
2022-12-20T17:00:43.668Z,86.51
2022-12-20T17:03:12.910Z,86.41
2022-12-20T17:05:42.045Z,86.15
2022-12-20T17:10:58.812Z,86.68
2022-12-20T17:13:28.154Z,85.92
2022-12-20T17:15:57.862Z,85.50
2022-12-20T17:18:27.337Z,85.62
2022-12-20T17:20:56.788Z,84.10
2022-12-20T17:23:43.787Z,84.28
2022-12-20T17:26:25.471Z,83.96
2022-12-20T17:29:02.843Z,84.32
2022-12-20T17:31:40.374Z,83.26
2022-12-20T17:34:24.576Z,83.07
2022-12-20T17:36:58.327Z,83.17
2022-12-20T17:39:27.513Z,82.53
2022-12-20T17:41:56.501Z,82.51
2022-12-20T17:44:30.167Z,81.64
2022-12-20T17:46:59.744Z,82.00
2022-12-20T17:49:28.962Z,81.05
2022-12-20T17:51:57.874Z,81.10
2022-12-20T17:54:34.928Z,81.82
2022-12-20T17:57:05.766Z,80.43
2022-12-20T17:59:37.198Z,79.72
2022-12-20T18:02:19.958Z,79.72
2022-12-20T18:04:49.682Z,79.91
2022-12-20T18:07:19.011Z,79.35
2022-12-20T18:09:49.061Z,79.58
2022-12-20T18:12:18.809Z,79.01
2022-12-20T18:14:50.377Z,79.29
2022-12-20T18:17:19.497Z,78.69
2022-12-20T18:19:48.487Z,78.22
2022-12-20T18:22:17.786Z,78.00
2022-12-20T18:24:46.779Z,77.90
2022-12-20T18:27:15.793Z,78.42
2022-12-20T18:29:44.922Z,78.09
2022-12-20T18:32:13.994Z,78.29
2022-12-20T18:34:44.181Z,78.61
2022-12-20T18:37:13.057Z,78.37
2022-12-20T18:39:42.771Z,78.09
2022-12-20T18:42:11.824Z,77.55
2022-12-20T18:44:41.861Z,77.73
2022-12-20T18:47:12.121Z,77.32
2022-12-20T18:49:41.021Z,77.22
2022-12-20T18:52:09.765Z,78.10
2022-12-20T18:54:39.479Z,77.36
2022-12-20T18:57:08.611Z,78.12
2022-12-20T18:59:40.304Z,77.30
2022-12-20T19:02:15.277Z,77.28
2022-12-20T19:04:47.181Z,77.33
2022-12-20T19:07:17.174Z,77.22
2022-12-20T19:09:45.863Z,76.76
2022-12-20T19:12:14.763Z,76.84
2022-12-20T19:14:44.054Z,77.57
2022-12-20T19:17:13.374Z,77.64
2022-12-20T19:19:42.109Z,77.54
2022-12-20T19:22:10.871Z,77.67
2022-12-20T19:24:39.875Z,76.53
2022-12-20T19:27:10.121Z,76.65
2022-12-20T19:29:39.797Z,77.23
2022-12-20T19:32:08.616Z,76.70
2022-12-20T19:34:37.398Z,76.36
2022-12-20T19:37:06.268Z,76.87
2022-12-20T19:39:35.630Z,75.81
2022-12-20T19:42:24.140Z,76.46
2022-12-20T19:44:53.820Z,75.39
2022-12-20T19:47:22.600Z,75.46
2022-12-20T19:49:52.172Z,75.85
2022-12-20T19:52:28.889Z,75.87
2022-12-20T19:54:58.227Z,75.87
2022-12-20T19:57:27.279Z,75.15
2022-12-20T19:59:56.335Z,75.25
2022-12-20T20:02:25.548Z,75.96
2022-12-20T20:04:54.977Z,76.02
2022-12-20T20:07:23.931Z,75.67
2022-12-20T20:09:52.890Z,74.90
2022-12-20T20:12:21.732Z,75.60
2022-12-20T20:14:51.481Z,75.41
2022-12-20T20:17:20.700Z,75.00
2022-12-20T20:19:49.526Z,75.56
2022-12-20T20:22:22.866Z,75.67
2022-12-20T20:24:52.266Z,74.93
2022-12-20T20:27:21.085Z,75.71
2022-12-20T20:29:51.279Z,75.15
2022-12-20T20:32:19.985Z,75.35
2022-12-20T20:34:48.811Z,74.97
2022-12-20T20:37:17.323Z,75.44
2022-12-20T20:39:46.151Z,75.38
2022-12-20T20:42:18.501Z,75.56
2022-12-20T20:44:51.828Z,75.10
2022-12-20T20:47:21.296Z,75.00
2022-12-20T20:49:49.906Z,75.10
2022-12-20T20:52:18.641Z,74.83
2022-12-20T20:54:47.500Z,74.83
2022-12-20T20:57:16.369Z,74.79
2022-12-20T20:59:45.242Z,75.01
2022-12-20T21:02:15.647Z,75.10
2022-12-20T21:04:59.620Z,75.30
2022-12-20T21:07:34.988Z,75.21
2022-12-20T21:10:05.571Z,75.48
2022-12-20T21:12:34.614Z,76.03
2022-12-20T21:17:52.480Z,75.49
2022-12-20T21:20:26.017Z,75.37
2022-12-20T21:22:56.200Z,75.01
2022-12-20T21:25:25.177Z,75.36
2022-12-20T21:27:54.632Z,75.32
2022-12-20T21:30:24.025Z,75.37
2022-12-20T21:32:53.554Z,75.15
2022-12-20T21:35:22.632Z,75.42
2022-12-20T21:37:51.725Z,74.62
2022-12-20T21:40:20.969Z,75.16
2022-12-20T21:42:50.358Z,75.12
2022-12-20T21:45:19.809Z,75.30
2022-12-20T21:47:49.115Z,75.24
2022-12-20T21:50:36.577Z,75.33
2022-12-20T21:53:05.803Z,74.89
2022-12-20T21:55:34.809Z,74.94
2022-12-20T21:58:03.962Z,74.98
2022-12-20T22:00:33.123Z,75.25
2022-12-20T22:03:01.980Z,75.38
2022-12-20T22:05:31.142Z,75.19
2022-12-20T22:08:00.157Z,75.01
2022-12-20T22:10:32.097Z,75.12
2022-12-20T22:13:01.145Z,75.08
2022-12-20T22:15:30.727Z,74.34
2022-12-20T22:18:02.628Z,74.28
2022-12-20T22:20:32.155Z,74.41
2022-12-20T22:23:02.333Z,74.37
2022-12-20T22:25:32.685Z,74.67
2022-12-20T22:28:01.836Z,74.29
2022-12-20T22:30:31.022Z,74.48
2022-12-20T22:33:00.271Z,74.07
2022-12-20T22:35:29.407Z,74.24
2022-12-20T22:37:58.903Z,74.61
2022-12-20T22:40:28.084Z,74.80
2022-12-20T22:42:56.884Z,74.67
2022-12-20T22:45:25.870Z,74.51
2022-12-20T22:47:54.586Z,74.80
2022-12-20T22:50:23.314Z,74.42
2022-12-20T22:52:53.201Z,74.42
2022-12-20T22:55:21.845Z,74.26
2022-12-20T22:57:50.676Z,74.44
2022-12-20T23:00:19.703Z,74.18
2022-12-20T23:02:48.931Z,74.38
2022-12-20T23:05:18.128Z,73.98
2022-12-20T23:07:46.956Z,74.28
2022-12-20T23:10:37.970Z,74.08
2022-12-20T23:13:26.862Z,74.33
2022-12-20T23:15:55.801Z,73.76
2022-12-20T23:18:24.540Z,74.28
2022-12-20T23:21:12.364Z,74.32
2022-12-20T23:23:41.477Z,73.27
2022-12-20T23:26:16.862Z,73.29
2022-12-20T23:28:45.818Z,73.83
2022-12-20T23:31:15.219Z,73.85
2022-12-20T23:33:44.554Z,74.05
2022-12-20T23:36:13.456Z,74.04
2022-12-20T23:38:42.302Z,74.29
2022-12-20T23:41:13.933Z,73.68
2022-12-20T23:43:43.048Z,74.47
2022-12-20T23:46:15.333Z,74.49
2022-12-20T23:48:44.442Z,74.38
2022-12-20T23:51:13.797Z,74.10
2022-12-20T23:53:42.835Z,74.43
2022-12-20T23:56:14.150Z,74.46
2022-12-20T23:58:44.319Z,74.73
